Al Ahsa, Saudi Arabia

1:11 AM AST on September 22, 2014 (GMT +0300)
Al Ahsa | Change Station
CLOSE
Current Station
Airport
Location: Al Ahsa,
Elevation: 587 ft
Nearby Weather Stations

Elev 587 ft 25.29 °N, 49.49 °E | Updated 11 minutes ago

Clear
Clear
81 °F
Feels Like 80 °F
N
4
Wind Variable Wind from NNW

Today
High -- | Low -- °F
--% Chance of Precip.
Yesterday
High -- | Low -- °F
Precip. -- in
5:30 AM 5:38 PM
Waning Crescent, 5% visible
Pressure 29.65 in
Visibility -9999.0 miles
Clouds
Heat Index 80 °F
Dew Point 55 °F
Humidity 42%
Rainfall 0.00 in
Snow Depth Not available.
UV Not available.
Pollen Not available.
Air Quality Not available.
Flu Activity Not available.
METAR OEAH 212200Z 33003KT CAVOK 27/13 Q1004 NOSIG

More Conditions Fewer Conditions

Pressure 29.65 in
Visibility -9999.0 miles
Clouds
Heat Index 80 °F
Dew Point 55 °F
Humidity 42%
Rainfall 0.00 in
Snow Depth Not available.
UV Not available.
Pollen Not available.
Air Quality Not available.
Flu Activity Not available.
METAR OEAH 212200Z 33003KT CAVOK 27/13 Q1004 NOSIG

More Conditions Fewer Conditions

10-Day Weather Forecast

Almanac

Astronomy

Sep. 22, 2014 Rise Set
Actual Time 5:30 AM AST 5:38 PM AST
Civil Twilight 5:07 AM AST 6:01 PM AST
Nautical Twilight 4:41 AM AST 6:28 PM AST
Astronomical Twilight 4:14 AM AST 6:55 PM AST
Moon 3:46 AM AST (9/22) 4:28 PM AST (9/22)
Length of Visible Light 12h 54m
Length of Day
12h 08m
Tomorrow will be 1m 28s shorter.
Waning Crescent, 5% of the Moon is Illuminated
Sep 21
Waning Crescent
Sep 24
New
Oct 1
First Quarter
Oct 8
Full
Oct 15
Last Quarter

Yesterday's Extremes

Country Highs Country Lows

Community

WunderPhotos

Upload Photos

1,755,269 photos uploaded!

WunderBlogs® & News

Nearby

Snow Depth

Not available.

Earthquake Activity

City Distance Mag. Time & Date
No recent earthquake activity has been reported nearby.
Minimum magnitude displayed is 2.5.

Coastal Water Temperatures

Place Temperature
No Stations Reporting

Nearby Weather Stations